Time;durP1;ratioP1;P1;durP2;ratioP2;P2;SDS_P1;SDS_P2;PMS_P1;PMS_P2;Temp;Humidity;BMP_temperature;BMP_pressure;BME280_temperature;BME280_humidity;BME280_pressure;Samples;Min_cycle;Max_cycle;Signal;HPM_P1;HPM_P2
2023/10/18 00:03:59;;;;;;;21.23;12.53;;;;;;;3.64;100.00;101262.72;4865193;29;20044;-84
2023/10/18 00:06:48;;;;;;;22.95;13.25;;;;;;;3.71;100.00;101250.50;4873852;29;20305;-84
2023/10/18 00:10:04;;;;;;;;;;;;;;;;;;;;;
2023/10/18 00:12:35;;;;;;;20.70;12.35;;;;;;;3.67;100.00;101235.81;4842805;29;20070;-85
2023/10/18 00:15:15;;;;;;;;;;;;;;;3.70;100.00;101245.34;4875723;29;20619;-84
2023/10/18 00:17:46;;;;;;;20.35;11.98;;;;;;;3.62;100.00;101240.72;4868967;29;20003;-84
2023/10/18 00:23:33;;;;;;;19.15;12.15;;;;;;;3.63;100.00;101239.75;4875874;29;20540;-84
2023/10/18 00:26:28;;;;;;;;;;;;;;;3.59;100.00;101239.19;4875350;29;20041;-84
2023/10/18 00:28:55;;;;;;;21.77;13.57;;;;;;;3.55;100.00;101234.28;4876159;29;20360;-85
2023/10/18 00:31:27;;;;;;;19.92;12.43;;;;;;;3.49;100.00;101225.91;4874792;29;20112;-85
2023/10/18 00:33:53;;;;;;;21.10;12.82;;;;;;;3.48;100.00;101234.00;4870998;29;20482;-85
2023/10/18 00:36:30;;;;;;;21.38;13.38;;;;;;;3.44;100.00;101230.78;4874478;29;20033;-85
2023/10/18 00:38:55;;;;;;;24.00;12.98;;;;;;;3.44;100.00;101224.66;4902103;29;20035;-85
2023/10/18 00:41:32;;;;;;;;;;;;;;;3.43;100.00;101215.81;4955668;29;20480;-86
2023/10/18 00:44:22;;;;;;;22.20;12.63;;;;;;;3.43;100.00;101233.59;4952925;29;20353;-86
2023/10/18 00:47:03;;;;;;;23.70;13.38;;;;;;;3.32;100.00;101218.63;4934603;29;20392;-86
2023/10/18 00:49:28;;;;;;;24.98;13.80;;;;;;;3.27;100.00;101220.84;4940848;29;20035;-86
2023/10/18 00:52:03;;;;;;;23.85;13.82;;;;;;;3.29;100.00;101213.56;4919856;29;20019;-86
2023/10/18 00:54:28;;;;;;;20.98;12.32;;;;;;;3.22;100.00;101212.44;4941869;28;20377;-86
2023/10/18 00:56:54;;;;;;;22.52;13.43;;;;;;;3.14;100.00;101200.69;4927200;29;20057;-86
2023/10/18 00:59:26;;;;;;;24.50;14.10;;;;;;;3.21;100.00;101200.97;4935718;29;20038;-86
2023/10/18 01:02:01;;;;;;;24.25;13.95;;;;;;;3.25;100.00;101204.19;4952048;29;20043;-86
2023/10/18 01:04:28;;;;;;;23.75;13.15;;;;;;;3.18;100.00;101196.75;4952622;29;20045;-86
2023/10/18 01:06:57;;;;;;;23.52;13.13;;;;;;;3.15;100.00;101197.06;4954347;29;20055;-87
2023/10/18 01:09:24;;;;;;;25.38;13.65;;;;;;;3.13;100.00;101199.00;4953025;29;20555;-86
2023/10/18 01:11:51;;;;;;;25.00;14.30;;;;;;;3.19;100.00;101198.44;4952598;29;20031;-86
2023/10/18 01:14:24;;;;;;;24.90;14.20;;;;;;;3.23;100.00;101198.16;4954800;29;20023;-86
2023/10/18 01:16:53;;;;;;;23.67;13.75;;;;;;;3.18;100.00;101191.44;4954253;29;20035;-86
2023/10/18 01:19:19;;;;;;;22.90;14.00;;;;;;;3.12;100.00;101192.00;4953430;29;20031;-86
2023/10/18 01:21:49;;;;;;;24.67;13.80;;;;;;;3.24;100.00;101181.22;4949408;28;20543;-87
2023/10/18 01:24:15;;;;;;;24.05;13.73;;;;;;;3.22;100.00;101184.03;4951734;29;20462;-86
2023/10/18 01:26:44;;;;;;;22.35;13.73;;;;;;;3.14;100.00;101186.53;4952182;29;20031;-86
2023/10/18 01:29:09;;;;;;;25.88;14.25;;;;;;;3.07;100.00;101186.25;4945896;29;20122;-86
2023/10/18 01:31:35;;;;;;;23.50;13.57;;;;;;;3.09;100.00;101175.50;4950412;29;20800;-86
2023/10/18 01:34:10;;;;;;;25.90;14.60;;;;;;;3.12;100.00;101181.38;4936213;29;20082;-86
2023/10/18 01:36:38;;;;;;;25.27;14.43;;;;;;;3.12;100.00;101169.88;4952852;29;20024;-86
2023/10/18 01:39:18;;;;;;;25.67;14.13;;;;;;;3.08;100.00;101164.00;4951340;29;20030;-86
2023/10/18 01:41:46;;;;;;;26.67;14.82;;;;;;;3.13;100.00;101159.09;4935853;29;20031;-86
2023/10/18 01:44:12;;;;;;;24.45;13.85;;;;;;;3.07;100.00;101146.34;4952878;29;20039;-86
2023/10/18 01:46:45;;;;;;;25.67;13.57;;;;;;;3.11;100.00;101155.75;4951701;29;20026;-86
2023/10/18 01:49:13;;;;;;;25.38;14.52;;;;;;;3.15;100.00;101154.50;4954802;28;20369;-86
2023/10/18 01:51:42;;;;;;;26.63;14.38;;;;;;;3.18;100.00;101154.19;4952854;29;20074;-86
2023/10/18 01:54:15;;;;;;;24.75;14.10;;;;;;;3.15;100.00;101150.97;4956885;28;20034;-86
2023/10/18 01:56:46;;;;;;;22.85;13.70;;;;;;;3.17;100.00;101144.56;4946805;28;20078;-86
2023/10/18 01:59:18;;;;;;;24.85;13.85;;;;;;;3.18;100.00;101150.69;4958318;29;20035;-85
2023/10/18 02:01:51;;;;;;;22.35;14.10;;;;;;;3.21;100.00;101149.56;4954754;29;20049;-85
2023/10/18 02:04:26;;;;;;;25.95;14.13;;;;;;;3.19;100.00;101142.56;4949640;29;20038;-86
2023/10/18 02:07:02;;;;;;;25.20;13.75;;;;;;;3.13;100.00;101152.94;4940662;29;20544;-86
2023/10/18 02:09:31;;;;;;;24.17;13.82;;;;;;;3.08;100.00;101142.72;4948886;29;20030;-86
2023/10/18 02:11:56;;;;;;;28.27;14.73;;;;;;;3.04;100.00;101130.66;4957258;29;20118;-86
2023/10/18 02:14:21;;;;;;;23.20;13.85;;;;;;;3.05;100.00;101144.84;4958709;29;20499;-85
2023/10/18 02:16:47;;;;;;;26.77;13.48;;;;;;;3.03;100.00;101131.66;4958597;29;20037;-82
2023/10/18 02:19:21;;;;;;;26.33;14.20;;;;;;;3.03;100.00;101129.84;4966828;29;20095;-86
2023/10/18 02:21:47;;;;;;;25.27;13.35;;;;;;;2.99;100.00;101135.59;4962394;28;20027;-86
2023/10/18 02:24:12;;;;;;;22.67;13.98;;;;;;;2.95;100.00;101134.19;4952762;29;20078;-86
2023/10/18 02:26:53;;;;;;;21.65;13.57;;;;;;;2.94;100.00;101140.47;4957917;29;20023;-85
2023/10/18 02:29:19;;;;;;;27.65;14.20;;;;;;;2.86;100.00;101141.19;4943207;29;20130;-86
2023/10/18 02:31:45;;;;;;;22.98;13.85;;;;;;;2.83;100.00;101139.63;4948349;29;20038;-86
2023/10/18 02:34:16;;;;;;;23.33;14.10;;;;;;;2.86;100.00;101143.84;4953507;28;20027;-88
2023/10/18 02:36:47;;;;;;;26.35;13.38;;;;;;;2.84;100.00;101135.16;4943215;29;20030;-85
2023/10/18 02:39:27;;;;;;;30.05;14.55;;;;;;;2.81;100.00;101141.59;4954872;29;20547;-85
2023/10/18 02:41:54;;;;;;;23.60;13.63;;;;;;;2.78;100.00;101131.25;4953942;29;20658;-85
2023/10/18 02:44:21;;;;;;;25.35;14.50;;;;;;;2.76;100.00;101133.19;4956486;29;20035;-85
2023/10/18 02:46:49;;;;;;;23.83;14.05;;;;;;;2.73;100.00;101128.16;4956688;29;20020;-85
2023/10/18 02:49:14;;;;;;;26.17;14.70;;;;;;;2.74;100.00;101119.19;4947848;29;20707;-85
2023/10/18 02:51:40;;;;;;;23.27;13.98;;;;;;;2.67;100.00;101131.34;4961590;29;20027;-85
2023/10/18 02:56:40;;;;;;;24.58;14.05;;;;;;;2.68;100.00;101120.59;4956229;29;20098;-84
2023/10/18 02:59:15;;;;;;;28.05;14.65;;;;;;;2.68;100.00;101109.09;4940524;28;20031;-85
2023/10/18 03:01:40;;;;;;;29.38;14.43;;;;;;;2.67;100.00;101110.94;4953379;29;20082;-85
2023/10/18 03:04:11;;;;;;;23.65;13.95;;;;;;;2.64;100.00;101118.38;4954703;29;20039;-85
2023/10/18 03:06:37;;;;;;;27.83;14.73;;;;;;;2.60;100.00;101106.31;4957483;29;20027;-85
2023/10/18 03:09:03;;;;;;;27.10;14.27;;;;;;;2.57;100.00;101110.06;4954167;29;20439;-85
2023/10/18 03:11:31;;;;;;;28.00;14.77;;;;;;;2.60;100.00;101099.19;4954416;29;20516;-85
2023/10/18 03:13:57;;;;;;;27.10;14.50;;;;;;;2.57;100.00;101104.75;4955962;28;20035;-85
2023/10/18 03:19:09;;;;;;;26.40;14.48;;;;;;;2.60;100.00;101098.34;4962762;29;20035;-85
2023/10/18 03:21:35;;;;;;;27.85;14.15;;;;;;;2.51;100.00;101097.38;4956964;29;20054;-87
2023/10/18 03:24:01;;;;;;;29.98;14.95;;;;;;;2.51;100.00;101098.19;4955358;28;20463;-84
2023/10/18 03:26:37;;;;;;;26.05;14.07;;;;;;;2.52;100.00;101096.38;4956159;29;20390;-84
2023/10/18 03:29:05;;;;;;;28.25;14.35;;;;;;;2.45;100.00;101085.47;4953560;28;20031;-85
2023/10/18 03:31:35;;;;;;;27.35;14.77;;;;;;;2.49;100.00;101088.69;4955735;29;20105;-85
2023/10/18 03:34:04;;;;;;;32.38;15.45;;;;;;;2.54;100.00;101087.28;4952325;29;20027;-85
2023/10/18 03:36:34;;;;;;;28.58;14.63;;;;;;;2.54;100.00;101087.28;4955665;29;20031;-85
2023/10/18 03:39:15;;;;;;;28.30;14.57;;;;;;;2.48;100.00;101079.84;4953981;29;20531;-85
2023/10/18 03:41:41;;;;;;;27.80;13.88;;;;;;;2.48;100.00;101079.03;4937139;29;20083;-85
2023/10/18 03:44:22;;;;;;;30.55;14.90;;;;;;;2.49;100.00;101068.25;4953008;29;20105;-84
2023/10/18 03:46:47;;;;;;;26.40;14.52;;;;;;;2.45;100.00;101066.88;4954885;29;20023;-85
2023/10/18 03:49:33;;;;;;;31.58;15.45;;;;;;;2.48;100.00;101060.44;4957671;29;20424;-85
2023/10/18 03:52:06;;;;;;;25.20;14.30;;;;;;;2.42;100.00;101052.03;4955803;29;20035;-86
2023/10/18 03:54:44;;;;;;;26.05;14.20;;;;;;;2.42;100.00;101061.81;4937352;29;20028;-86
2023/10/18 03:57:15;;;;;;;32.50;15.68;;;;;;;2.43;100.00;101048.38;4952982;29;20046;-86
2023/10/18 03:59:45;;;;;;;27.70;14.75;;;;;;;2.43;100.00;101044.91;4955855;29;20421;-86
2023/10/18 04:02:16;;;;;;;27.95;14.75;;;;;;;2.50;100.00;101032.72;4954196;29;20034;-86
2023/10/18 04:04:45;;;;;;;27.10;14.20;;;;;;;2.54;100.00;101034.13;4940501;29;20114;-87
2023/10/18 04:07:16;;;;;;;25.35;14.75;;;;;;;2.56;100.00;101029.53;4955065;29;20506;-86
2023/10/18 04:09:53;;;;;;;25.95;14.57;;;;;;;2.55;100.00;101030.50;4952567;29;20027;-86
2023/10/18 04:12:19;;;;;;;24.98;14.38;;;;;;;2.51;100.00;101018.47;4953061;28;20031;-87
2023/10/18 04:14:53;;;;;;;25.27;14.43;;;;;;;2.61;100.00;101017.63;4955496;29;20031;-77
2023/10/18 04:17:20;;;;;;;103.53;17.55;;;;;;;2.61;100.00;101007.00;4959018;29;20409;-82
2023/10/18 04:19:54;;;;;;;26.83;14.52;;;;;;;2.54;100.00;101001.41;4954070;29;20039;-78
2023/10/18 04:22:40;;;;;;;23.92;13.82;;;;;;;2.53;100.00;100994.44;4954541;29;20027;-84
2023/10/18 04:25:14;;;;;;;26.90;14.88;;;;;;;2.56;100.00;101000.28;4950701;29;20182;-87
2023/10/18 04:27:40;;;;;;;23.60;13.68;;;;;;;2.55;100.00;100993.28;4953535;29;20023;-87
2023/10/18 04:30:06;;;;;;;;;;;;;;;2.48;100.00;100994.00;4954577;29;20060;-88
2023/10/18 04:32:31;;;;;;;24.55;13.52;;;;;;;2.54;100.00;100991.63;4955156;29;19918;-89
2023/10/18 04:35:07;;;;;;;;;;;;;;;;;;;;;
2023/10/18 04:37:41;;;;;;;21.58;12.57;;;;;;;2.55;100.00;100976.53;5025652;23;20060;-89
2023/10/18 04:53:12;;;;;;;22.90;13.45;;;;;;;2.68;100.00;100949.63;4936314;23;20451;-88
2023/10/18 04:55:58;;;;;;;24.15;12.43;;;;;;;2.68;100.00;100944.31;4891607;29;20135;-88
2023/10/18 04:58:34;;;;;;;22.50;12.70;;;;;;;2.65;100.00;100937.47;4899082;29;20044;-88
2023/10/18 05:04:46;;;;;;;19.77;11.68;;;;;;;2.66;100.00;100925.00;4916689;29;19982;-88
2023/10/18 05:07:53;;;;;;;21.35;12.60;;;;;;;2.64;100.00;100924.34;4915991;29;20135;-87
2023/10/18 05:11:04;;;;;;;23.02;12.88;;;;;;;2.70;100.00;100918.44;4916831;29;20378;-89
2023/10/18 05:13:36;;;;;;;21.67;12.82;;;;;;;2.73;100.00;100920.81;5454893;23;20737;-88
2023/10/18 05:19:00;;;;;;;21.58;12.23;;;;;;;2.66;100.00;100911.72;5135425;23;20444;-89
2023/10/18 05:21:26;;;;;;;20.30;12.55;;;;;;;2.69;100.00;100916.75;4954222;29;20055;-88
2023/10/18 05:27:35;;;;;;;20.10;12.30;;;;;;;2.73;100.00;100923.47;5098336;23;20468;-88
2023/10/18 05:30:08;;;;;;;20.27;12.23;;;;;;;2.69;100.00;100917.59;4959435;29;20126;-88
2023/10/18 05:41:59;;;;;;;19.05;12.45;;;;;;;2.71;100.00;100906.81;4924735;29;20048;-88
2023/10/18 05:44:31;;;;;;;22.50;12.90;;;;;;;2.75;100.00;100913.53;4923112;29;20028;-88
2023/10/18 05:47:09;;;;;;;19.67;12.75;;;;;;;2.69;100.00;100903.47;4919767;29;20080;-88
2023/10/18 05:49:50;;;;;;;21.45;12.48;;;;;;;2.74;100.00;100906.53;4905517;29;20083;-88
2023/10/18 06:15:58;;;;;;;20.17;12.63;;;;;;;2.79;100.00;100887.47;4958798;29;20534;-89
2023/10/18 06:22:13;;;;;;;20.13;12.93;;;;;;;2.79;100.00;100861.75;4967644;29;20198;-87
2023/10/18 06:28:31;;;;;;;22.13;12.43;;;;;;;2.96;100.00;100865.44;5124282;23;20225;-88
2023/10/18 06:34:46;;;;;;;19.33;12.13;;;;;;;3.10;100.00;100863.28;4959734;23;20063;-87
2023/10/18 06:45:37;;;;;;;17.60;12.13;;;;;;;3.41;100.00;100850.50;4965431;29;20404;-89
2023/10/18 06:48:28;;;;;;;18.40;11.88;;;;;;;3.52;100.00;100845.97;4966012;29;20041;-88
2023/10/18 07:06:51;;;;;;;17.52;11.45;;;;;;;4.10;100.00;100844.66;4869388;29;20051;-88
2023/10/18 07:09:58;;;;;;;16.00;10.90;;;;;;;4.20;100.00;100849.88;4882646;29;20454;-88
2023/10/18 07:23:03;;;;;;;19.63;11.00;;;;;;;4.72;100.00;100826.88;4939402;29;20051;-88
2023/10/18 07:25:32;;;;;;;16.23;10.23;;;;;;;4.76;100.00;100815.72;4939203;29;20042;-87
2023/10/18 07:31:38;;;;;;;16.65;10.40;;;;;;;5.19;100.00;100812.22;4937999;29;20095;-89
2023/10/18 07:34:07;;;;;;;15.65;10.48;;;;;;;5.34;100.00;100810.59;4918862;29;20040;-89
2023/10/18 07:51:37;;;;;;;13.00;9.07;;;;;;;7.33;86.90;100789.66;5217937;23;20055;-88
2023/10/18 07:54:08;;;;;;;15.73;10.00;;;;;;;7.37;86.06;100780.28;4955715;29;20531;-88
2023/10/18 08:02:43;;;;;;;14.05;10.18;;;;;;;7.36;84.93;100772.41;4976325;23;20503;-88
2023/10/18 08:05:45;;;;;;;14.00;9.27;;;;;;;7.12;86.72;100767.03;4976477;28;20034;-89
2023/10/18 08:08:31;;;;;;;15.43;8.45;;;;;;;7.06;87.21;100757.00;4956669;28;20117;-88
2023/10/18 08:11:11;;;;;;;15.02;9.20;;;;;;;7.06;85.99;100761.56;4959412;29;20041;-88
2023/10/18 08:13:45;;;;;;;14.20;9.55;;;;;;;6.76;86.83;100761.38;4919039;29;20066;-89
2023/10/18 08:16:43;;;;;;;17.75;10.05;;;;;;;6.65;89.05;100755.38;4931817;29;20036;-88
2023/10/18 08:19:11;;;;;;;15.90;9.82;;;;;;;6.47;89.77;100744.94;4955585;29;20030;-88
2023/10/18 08:21:38;;;;;;;13.68;9.27;;;;;;;6.63;89.57;100751.22;4957891;29;20027;-88
2023/10/18 08:24:08;;;;;;;14.23;9.82;;;;;;;6.70;89.45;100744.19;4952222;29;20027;-89
2023/10/18 08:29:38;;;;;;;14.18;9.43;;;;;;;6.80;88.67;100728.75;4954443;29;20514;-89
2023/10/18 08:38:52;;;;;;;12.75;9.32;;;;;;;7.04;87.64;100737.66;4922410;23;20843;-88
2023/10/18 08:51:33;;;;;;;15.15;8.35;;;;;;;7.57;83.26;100716.34;4947089;29;20035;-88
2023/10/18 08:53:58;;;;;;;13.32;8.52;;;;;;;7.51;83.96;100718.91;4940044;29;20051;-88
2023/10/18 08:57:07;;;;;;;17.48;9.15;;;;;;;7.65;82.43;100718.09;4938324;29;20086;-89
2023/10/18 09:05:33;;;;;;;17.13;8.27;;;;;;;7.98;80.06;100703.56;5110898;23;20146;-87
2023/10/18 09:11:47;;;;;;;12.80;7.63;;;;;;;8.16;80.86;100701.38;4953676;29;20142;-88
2023/10/18 09:26:44;;;;;;;13.57;7.70;;;;;;;8.86;75.03;100692.16;5029906;23;20055;-87
2023/10/18 09:29:32;;;;;;;11.98;7.90;;;;;;;9.14;74.64;100681.50;4981638;23;20119;-89
2023/10/18 09:34:38;;;;;;;12.15;7.40;;;;;;;9.20;74.10;100666.47;5178008;23;20067;-88
2023/10/18 09:40:06;;;;;;;11.48;7.68;;;;;;;9.05;74.99;100666.50;5020849;23;20430;-87
2023/10/18 09:42:44;;;;;;;10.38;7.35;;;;;;;9.28;74.59;100660.13;4869669;29;20087;-87
2023/10/18 09:48:39;;;;;;;9.73;7.28;;;;;;;9.50;73.28;100666.28;5273010;23;20075;-88
2023/10/18 09:54:07;;;;;;;10.50;7.82;;;;;;;9.72;71.87;100653.63;5130240;23;19977;-88
2023/10/18 09:56:37;;;;;;;11.27;7.18;;;;;;;9.69;72.67;100640.59;4936060;29;20126;-88
2023/10/18 10:08:47;;;;;;;11.05;7.32;;;;;;;10.24;68.25;100634.47;5041033;23;20058;-87
2023/10/18 10:14:35;;;;;;;10.05;7.05;;;;;;;10.61;67.83;100624.28;4970694;23;20386;-88
2023/10/18 10:23:55;;;;;;;8.13;6.80;;;;;;;10.78;66.31;100614.00;5167024;23;20071;-90
2023/10/18 10:32:39;;;;;;;8.85;6.60;;;;;;;11.17;66.39;100606.16;4966747;23;20591;-87
2023/10/18 10:35:32;;;;;;;9.70;6.38;;;;;;;11.24;65.24;100612.38;4963564;29;20098;-88
2023/10/18 10:38:34;;;;;;;7.63;5.88;;;;;;;11.33;64.34;100594.13;4943483;29;20078;-87
2023/10/18 10:44:07;;;;;;;8.75;6.18;;;;;;;11.07;63.94;100588.56;4946696;29;20170;-86
2023/10/18 10:56:32;;;;;;;10.32;6.30;;;;;;;11.48;61.42;100566.94;4906888;29;20126;-87
2023/10/18 10:59:35;;;;;;;9.05;5.70;;;;;;;11.46;61.35;100555.56;4956109;29;20388;-87
2023/10/18 11:08:01;;;;;;;7.50;5.22;;;;;;;11.84;60.79;100525.16;4957213;29;20058;-87
2023/10/18 11:13:57;;;;;;;9.07;5.78;;;;;;;11.82;59.57;100506.50;4960627;29;20086;-87
2023/10/18 11:16:31;;;;;;;6.95;5.70;;;;;;;12.00;60.53;100506.88;4944919;29;20027;-88
2023/10/18 11:19:40;;;;;;;6.63;5.80;;;;;;;11.94;59.64;100506.66;4959595;29;20034;-88
2023/10/18 11:25:41;;;;;;;7.80;5.75;;;;;;;12.16;59.18;100501.00;4962488;29;20039;-88
2023/10/18 11:29:31;;;;;;;7.28;5.53;;;;;;;12.68;58.25;100484.63;4955315;29;20050;-88
2023/10/18 11:35:46;;;;;;;7.35;5.72;;;;;;;13.26;56.15;100465.59;4867892;29;20052;-87
2023/10/18 11:39:08;;;;;;;7.95;5.78;;;;;;;13.02;56.44;100441.13;4939265;23;20560;-87
2023/10/18 11:50:54;;;;;;;5.63;4.90;;;;;;;14.28;52.14;100420.81;4878916;29;20052;-87
2023/10/18 11:54:30;;;;;;;7.05;5.57;;;;;;;14.23;51.43;100410.66;4868286;29;20112;-87
2023/10/18 11:57:08;;;;;;;7.55;5.57;;;;;;;14.23;51.64;100423.41;4841473;29;20135;-88
2023/10/18 12:10:40;;;;;;;7.03;4.95;;;;;;;15.85;47.10;100397.69;5174121;23;20051;-87
2023/10/18 12:13:29;;;;;;;6.43;5.15;;;;;;;15.68;48.35;100386.75;4936906;29;20042;-86
2023/10/18 12:16:32;;;;;;;8.25;5.20;;;;;;;16.15;48.33;100376.75;4936647;29;20090;-87
2023/10/18 12:19:48;;;;;;;8.00;5.30;;;;;;;16.03;47.24;100368.69;4956012;29;20046;-86
2023/10/18 12:22:34;;;;;;;7.60;5.13;;;;;;;15.82;46.73;100362.00;4949569;29;20039;-86
2023/10/18 12:25:15;;;;;;;8.15;5.30;;;;;;;16.06;46.86;100360.84;4938539;29;20039;-86
2023/10/18 12:27:50;;;;;;;8.07;5.35;;;;;;;16.01;46.72;100347.19;4955140;29;20365;-87
2023/10/18 12:33:05;;;;;;;7.20;4.90;;;;;;;15.65;47.66;100329.44;4935610;29;20043;-86
2023/10/18 12:35:43;;;;;;;8.18;5.13;;;;;;;15.83;47.75;100323.78;4932819;29;20043;-86
2023/10/18 12:38:36;;;;;;;8.13;5.22;;;;;;;15.71;46.75;100337.41;4952866;29;20069;-86
2023/10/18 12:41:18;;;;;;;8.25;5.10;;;;;;;15.34;48.32;100320.75;4964511;23;20051;-86
2023/10/18 12:43:47;;;;;;;5.85;4.75;;;;;;;15.65;48.71;100313.16;4948533;29;20423;-86
2023/10/18 12:49:05;;;;;;;5.00;4.50;;;;;;;16.49;46.26;100322.41;5030773;23;20063;-86
2023/10/18 12:51:41;;;;;;;5.57;4.82;;;;;;;16.17;47.07;100312.13;4928783;23;20164;-86
2023/10/18 12:54:19;;;;;;;5.97;5.20;;;;;;;16.40;45.66;100296.72;4916921;29;20038;-87
2023/10/18 12:56:56;;;;;;;6.22;5.22;;;;;;;16.05;46.79;100287.81;4897525;29;20048;-87
2023/10/18 13:03:15;;;;;;;8.32;4.97;;;;;;;16.08;47.34;100290.00;4986851;23;20064;-86
2023/10/18 13:05:43;;;;;;;5.82;4.90;;;;;;;16.23;47.47;100283.19;4913393;29;20054;-86
2023/10/18 13:08:37;;;;;;;7.03;5.07;;;;;;;16.17;46.61;100290.41;4916145;29;20024;-85
2023/10/18 13:13:53;;;;;;;8.23;5.57;;;;;;;16.17;46.89;100272.25;4915896;29;20127;-86
2023/10/18 13:16:19;;;;;;;7.28;5.25;;;;;;;16.10;47.60;100258.00;4916384;29;20517;-86
2023/10/18 13:18:44;;;;;;;7.05;5.30;;;;;;;16.12;47.85;100250.44;4915145;29;20024;-86
2023/10/18 13:21:11;;;;;;;6.38;5.30;;;;;;;16.08;47.11;100251.19;4908766;29;20401;-86
2023/10/18 13:23:49;;;;;;;6.72;5.28;;;;;;;15.90;47.15;100253.91;4916381;29;20095;-86
2023/10/18 13:26:34;;;;;;;6.00;5.40;;;;;;;15.48;48.59;100238.00;4915099;29;20031;-86
2023/10/18 13:29:00;;;;;;;8.65;5.28;;;;;;;15.00;50.36;100230.06;4916343;29;20138;-86
2023/10/18 13:31:31;;;;;;;8.38;5.40;;;;;;;15.13;50.01;100217.31;4916642;29;20343;-86
2023/10/18 13:34:01;;;;;;;8.80;5.25;;;;;;;15.25;50.17;100219.97;4915245;29;20446;-86
2023/10/18 13:36:27;;;;;;;6.00;5.32;;;;;;;15.11;50.55;100214.00;4915343;29;20032;-86
2023/10/18 13:38:53;;;;;;;6.53;5.13;;;;;;;14.96;51.49;100190.16;4924156;29;20330;-87
2023/10/18 13:41:28;;;;;;;5.43;4.82;;;;;;;14.85;51.63;100202.69;4919910;29;20036;-86
2023/10/18 13:44:09;;;;;;;9.10;4.53;;;;;;;14.08;52.55;100181.06;4915891;29;20030;-85
2023/10/18 13:46:36;;;;;;;7.07;5.00;;;;;;;13.93;53.35;100186.94;4918982;29;20292;-85
2023/10/18 13:49:03;;;;;;;5.88;4.70;;;;;;;13.69;53.51;100188.81;4917975;29;20064;-86
2023/10/18 13:51:45;;;;;;;6.63;5.05;;;;;;;13.53;53.56;100173.28;4919319;29;20103;-86
2023/10/18 13:54:12;;;;;;;5.43;4.80;;;;;;;13.26;55.69;100165.56;4920338;29;20429;-86
2023/10/18 13:56:38;;;;;;;7.70;4.70;;;;;;;13.28;56.17;100167.00;4920756;29;20028;-86
2023/10/18 13:59:13;;;;;;;5.97;4.90;;;;;;;13.18;56.37;100145.09;4920056;29;20036;-85
2023/10/18 14:01:39;;;;;;;7.20;4.75;;;;;;;13.01;56.58;100140.34;4921812;29;20070;-87
2023/10/18 14:04:05;;;;;;;7.80;4.85;;;;;;;13.12;57.07;100133.34;4922885;29;20058;-87
2023/10/18 14:06:34;;;;;;;9.48;5.57;;;;;;;12.93;58.07;100126.34;4922248;29;20095;-85
2023/10/18 14:09:55;;;;;;;5.30;4.80;;;;;;;12.88;58.30;100125.16;4922635;29;20024;-86
2023/10/18 14:18:58;;;;;;;8.95;4.88;;;;;;;12.89;57.64;100105.19;4926343;23;20060;-87
2023/10/18 14:21:29;;;;;;;8.43;4.63;;;;;;;12.76;58.28;100086.50;4918940;29;20063;-86
2023/10/18 14:23:59;;;;;;;6.22;4.47;;;;;;;12.82;59.59;100082.03;4919221;29;20028;-84
2023/10/18 14:26:34;;;;;;;7.57;5.00;;;;;;;12.85;59.22;100082.44;4918151;29;20119;-84
2023/10/18 14:29:46;;;;;;;5.50;4.95;;;;;;;12.66;59.84;100070.03;4901316;29;20533;-86
2023/10/18 14:32:11;;;;;;;7.40;5.10;;;;;;;12.48;60.39;100054.69;4910747;29;20047;-84
2023/10/18 14:34:38;;;;;;;7.40;4.80;;;;;;;12.42;60.41;100061.84;4920046;29;20020;-84
2023/10/18 14:37:04;;;;;;;7.13;4.75;;;;;;;12.54;59.52;100048.41;4923849;29;20032;-84
2023/10/18 14:39:29;;;;;;;8.82;4.68;;;;;;;12.52;59.94;100037.84;4925944;29;20031;-84
2023/10/18 14:45:06;;;;;;;7.05;4.90;;;;;;;12.30;61.80;100042.09;4920154;29;20095;-87
2023/10/18 14:47:48;;;;;;;8.80;5.13;;;;;;;12.25;60.89;100046.28;4918192;29;20132;-85
2023/10/18 14:50:14;;;;;;;6.85;4.80;;;;;;;12.21;61.17;100031.59;4918293;29;20024;-85
2023/10/18 14:52:42;;;;;;;6.35;4.50;;;;;;;12.08;60.81;100029.09;4918315;29;20028;-86
2023/10/18 14:55:11;;;;;;;5.45;4.55;;;;;;;12.17;61.32;100027.75;4918173;29;20177;-85
2023/10/18 14:57:44;;;;;;;10.38;4.53;;;;;;;12.10;59.71;100018.91;4916231;29;20028;-85
2023/10/18 15:00:27;;;;;;;6.47;4.93;;;;;;;11.87;61.25;100008.78;4918006;29;20039;-86
2023/10/18 15:02:53;;;;;;;5.45;4.88;;;;;;;11.86;62.74;100005.25;4917708;29;20035;-86
2023/10/18 15:05:20;;;;;;;6.63;5.05;;;;;;;11.76;63.11;100007.66;4916939;29;20028;-85
2023/10/18 15:08:00;;;;;;;7.32;4.95;;;;;;;11.77;62.17;100006.63;4916131;29;20032;-86
2023/10/18 15:10:28;;;;;;;7.63;4.88;;;;;;;11.54;62.33;99994.63;4917827;29;20051;-85
2023/10/18 15:12:54;;;;;;;6.07;4.40;;;;;;;11.61;61.33;99991.84;4918606;29;20064;-86
2023/10/18 15:18:41;;;;;;;7.05;4.57;;;;;;;11.52;61.64;99981.41;5213592;23;20062;-85
2023/10/18 15:21:31;;;;;;;6.32;5.07;;;;;;;11.43;62.33;99971.13;5169303;23;20060;-85
2023/10/18 15:23:56;;;;;;;6.15;4.55;;;;;;;11.46;61.85;99976.91;4936344;29;20499;-86
2023/10/18 15:35:30;;;;;;;6.47;4.50;;;;;;;11.27;62.54;99959.91;5123718;23;20069;-86
2023/10/18 15:37:56;;;;;;;7.68;4.70;;;;;;;11.12;63.24;99956.75;4953781;29;20055;-86
2023/10/18 15:40:22;;;;;;;5.90;4.78;;;;;;;10.94;64.03;99952.16;4954754;29;20031;-86
2023/10/18 15:42:47;;;;;;;5.45;4.60;;;;;;;10.93;63.44;99948.66;4954914;29;20027;-85
2023/10/18 15:45:47;;;;;;;7.57;4.78;;;;;;;10.90;63.94;99943.69;4962904;29;20027;-85
2023/10/18 15:48:12;;;;;;;7.88;4.50;;;;;;;10.83;63.56;99932.16;4956562;29;20058;-85
2023/10/18 15:50:39;;;;;;;6.55;4.30;;;;;;;10.84;63.89;99939.19;4955425;29;20472;-88
2023/10/18 15:53:07;;;;;;;5.72;4.00;;;;;;;10.86;63.95;99939.78;4956266;29;20031;-87
2023/10/18 15:55:35;;;;;;;6.78;4.63;;;;;;;10.76;64.30;99927.66;4937601;29;20030;-87
2023/10/18 15:58:01;;;;;;;5.78;4.28;;;;;;;10.74;64.23;99920.84;4955594;29;20512;-86
2023/10/18 16:00:31;;;;;;;6.60;4.82;;;;;;;10.71;64.38;99902.44;4958417;29;20027;-86
2023/10/18 16:02:56;;;;;;;6.28;4.25;;;;;;;10.68;64.83;99908.28;4956598;29;20027;-85
2023/10/18 16:05:24;;;;;;;5.80;4.68;;;;;;;10.66;64.46;99903.09;4954969;29;20027;-85
2023/10/18 16:07:54;;;;;;;5.68;4.30;;;;;;;10.56;64.81;99892.03;4935616;29;20484;-85
2023/10/18 16:10:30;;;;;;;7.82;4.50;;;;;;;10.55;64.98;99893.88;4949186;29;20031;-86
2023/10/18 16:12:55;;;;;;;6.72;4.80;;;;;;;10.41;65.47;99868.94;4955212;29;20030;-86
2023/10/18 16:15:34;;;;;;;6.30;4.60;;;;;;;10.46;65.21;99879.88;4962945;29;20020;-85
2023/10/18 16:18:00;;;;;;;5.97;4.25;;;;;;;10.48;65.21;99886.91;4956632;29;20039;-85
2023/10/18 16:20:37;;;;;;;5.82;4.35;;;;;;;10.47;64.67;99875.34;4957945;29;20086;-86
2023/10/18 16:23:03;;;;;;;5.28;4.70;;;;;;;10.43;65.15;99882.19;4953931;29;20023;-86
2023/10/18 16:25:32;;;;;;;6.78;4.22;;;;;;;10.37;65.53;99896.50;4954199;29;20480;-85
2023/10/18 16:27:58;;;;;;;5.70;4.22;;;;;;;10.38;64.90;99882.00;4952320;29;20459;-86
2023/10/18 16:30:25;;;;;;;12.82;4.28;;;;;;;10.35;65.45;99874.34;4954700;29;20035;-85
2023/10/18 16:32:50;;;;;;;5.68;4.15;;;;;;;10.25;65.66;99870.31;4953734;29;20034;-85
2023/10/18 16:38:38;;;;;;;8.50;4.18;;;;;;;10.27;65.38;99870.06;4953361;29;20050;-86
2023/10/18 16:41:04;;;;;;;7.28;4.20;;;;;;;10.25;65.90;99864.09;4953254;29;20039;-85
2023/10/18 16:43:36;;;;;;;8.68;4.50;;;;;;;10.26;65.49;99857.66;4976438;23;20113;-85
2023/10/18 16:46:05;;;;;;;5.28;4.05;;;;;;;10.31;65.00;99857.84;4953888;29;20038;-85
2023/10/18 16:48:31;;;;;;;8.00;4.00;;;;;;;10.34;65.16;99862.78;4938077;29;20074;-85
2023/10/18 16:51:07;;;;;;;5.47;4.18;;;;;;;10.30;65.65;99843.59;4938864;29;20024;-85
2023/10/18 16:53:39;;;;;;;6.65;4.43;;;;;;;10.28;65.35;99845.66;4935728;29;20027;-85
2023/10/18 16:56:29;;;;;;;7.38;4.40;;;;;;;10.28;65.35;99842.13;4947294;28;20074;-85
2023/10/18 16:58:56;;;;;;;5.90;3.97;;;;;;;10.29;65.39;99849.16;4954777;28;20035;-84